YDG weather

Digby / Annapolis Regional Airport
Digby, Nova Scotia, Canada

Public forecast

Using degrees Celsius for public forecast. Weather courtesy of forecast.io.

Closest aviation weather report (METAR) to Digby / Annapolis Regional Airport

Closest report is Yarmouth Airport, 45.1 nm (83.5 km) SSW. Retrieved 2019/10/18 07:00 UTC (17 minutes ago):

CYQI 180700Z 25020G26KT 9SM -SHRA FEW009 BKN017 OVC054 10/09 A2926 RMK SF1SC6SC1 CVCTV CLD EMBD SLP909 DENSITY ALT 400FT

Closest aviation forecast (TAF) to Digby / Annapolis Regional Airport

Closest forecast is Yarmouth Airport, 45.1 nm (83.5 km) SSW. Retrieved 2019/10/18 06:39 UTC (38 minutes ago):

TAF CYQI 180538Z 1806/1818 24020G30KT P6SM FEW008 SCT020 OVC025 TEMPO 1806/1809 5SM -SHRA BR BKN008 OVC020 FM180900 28018G28KT P6SM BKN025 TEMPO 1809/1815 BKN015 FM181500 30012G22KT P6SM BKN030 RMK NXT FCST BY 181200Z